Time;durP1;ratioP1;P1;durP2;ratioP2;P2;SDS_P1;SDS_P2;PMS_P1;PMS_P2;Temp;Humidity;BMP_temperature;BMP_pressure;BME280_temperature;BME280_humidity;BME280_pressure;Samples;Min_cycle;Max_cycle;Signal;HPM_P1;HPM_P2
2023/10/28 00:01:11;;;;;;;129.05;43.60;;;10.20;99.90;;;;;;5057244;28;20044;-86
2023/10/28 00:03:37;;;;;;;105.28;41.08;;;10.20;99.90;;;;;;5057985;28;20051;-86
2023/10/28 00:06:03;;;;;;;101.13;41.53;;;10.10;99.90;;;;;;5060834;28;20057;-85
2023/10/28 00:08:29;;;;;;;112.43;42.85;;;10.10;99.90;;;;;;5077834;28;20051;-87
2023/10/28 00:10:55;;;;;;;114.35;42.78;;;10.80;99.90;;;;;;5060916;28;20037;-86
2023/10/28 00:13:21;;;;;;;100.65;43.38;;;10.10;99.90;;;;;;5061109;28;20229;-86
2023/10/28 00:15:47;;;;;;;106.13;41.88;;;10.50;99.90;;;;;;5077616;28;20465;-86
2023/10/28 00:18:14;;;;;;;103.85;44.72;;;10.60;99.90;;;;;;5060216;28;20120;-86
2023/10/28 00:20:41;;;;;;;109.60;43.22;;;10.10;99.90;;;;;;5060953;28;20037;-86
2023/10/28 00:23:08;;;;;;;105.50;44.13;;;10.20;99.90;;;;;;5061545;28;20044;-87
2023/10/28 00:25:33;;;;;;;139.43;48.20;;;10.10;99.90;;;;;;5060785;28;20109;-86
2023/10/28 00:28:00;;;;;;;135.90;50.63;;;11.00;99.90;;;;;;5077333;28;20490;-84
2023/10/28 00:30:26;;;;;;;129.70;48.00;;;10.80;99.90;;;;;;5077316;28;20044;-87
2023/10/28 00:32:53;;;;;;;148.43;49.47;;;10.10;99.90;;;;;;5077804;28;20068;-86
2023/10/28 00:35:21;;;;;;;124.03;47.38;;;10.80;99.90;;;;;;5060347;28;20088;-86
2023/10/28 00:37:47;;;;;;;138.55;48.72;;;10.10;99.90;;;;;;5060265;28;20072;-86
2023/10/28 00:40:13;;;;;;;123.25;45.40;;;11.20;99.90;;;;;;5077636;28;20044;-86
2023/10/28 00:42:39;;;;;;;161.05;50.50;;;11.10;99.90;;;;;;5077255;28;20059;-86
2023/10/28 00:45:08;;;;;;;129.52;46.22;;;10.60;99.90;;;;;;5077240;28;20039;-85
2023/10/28 00:47:36;;;;;;;161.07;49.47;;;10.20;99.90;;;;;;5060055;28;20131;-86
2023/10/28 00:50:11;;;;;;;123.35;46.92;;;10.20;99.90;;;;;;5060480;28;20037;-86
2023/10/28 00:52:43;;;;;;;139.77;48.63;;;10.20;99.90;;;;;;5059856;28;20186;-86
2023/10/28 00:55:14;;;;;;;115.80;50.65;;;10.20;99.90;;;;;;5060518;28;20032;-85
2023/10/28 00:57:41;;;;;;;125.82;48.03;;;10.20;99.90;;;;;;5060209;28;20105;-86
2023/10/28 01:00:08;;;;;;;123.85;45.92;;;11.20;99.90;;;;;;5060030;28;20556;-86
2023/10/28 01:02:39;;;;;;;138.60;48.53;;;10.20;99.90;;;;;;5076236;28;20094;-87
2023/10/28 01:05:09;;;;;;;140.27;50.78;;;10.30;99.90;;;;;;5076898;28;20051;-86
2023/10/28 01:07:36;;;;;;;147.93;50.63;;;10.30;99.90;;;;;;5060490;28;20044;-86
2023/10/28 01:10:03;;;;;;;136.93;51.10;;;10.30;99.90;;;;;;5076457;28;20043;-86
2023/10/28 01:12:29;;;;;;;203.32;54.35;;;9.90;99.90;;;;;;5059184;28;20448;-86
2023/10/28 01:14:54;;;;;;;129.95;49.63;;;11.40;99.90;;;;;;5059453;28;20036;-86
2023/10/28 01:17:25;;;;;;;145.27;48.55;;;10.30;99.90;;;;;;5059120;28;20110;-86
2023/10/28 01:19:51;;;;;;;136.75;48.95;;;10.30;99.90;;;;;;5059741;28;20036;-86
2023/10/28 01:22:17;;;;;;;141.85;51.60;;;10.40;99.90;;;;;;5059435;28;20032;-86
2023/10/28 01:24:43;;;;;;;132.02;48.33;;;11.40;99.90;;;;;;5059708;28;20068;-86
2023/10/28 01:27:09;;;;;;;123.70;49.22;;;10.30;99.90;;;;;;5059629;28;20048;-86
2023/10/28 01:29:35;;;;;;;137.30;50.83;;;10.30;99.90;;;;;;5058807;28;20367;-86
2023/10/28 01:32:03;;;;;;;149.38;52.83;;;10.60;99.90;;;;;;5075914;28;20032;-87
2023/10/28 01:34:30;;;;;;;202.75;58.85;;;10.30;99.90;;;;;;5058874;28;20048;-86
2023/10/28 01:36:56;;;;;;;148.95;56.05;;;10.30;99.90;;;;;;5076458;28;20059;-87
2023/10/28 01:39:22;;;;;;;160.32;54.22;;;10.30;99.90;;;;;;5059127;28;20082;-86
2023/10/28 01:41:49;;;;;;;151.23;53.60;;;10.50;99.90;;;;;;5059499;28;20048;-85
2023/10/28 01:44:15;;;;;;;166.02;53.55;;;10.80;99.90;;;;;;5059727;28;20051;-86
2023/10/28 01:46:41;;;;;;;136.38;53.72;;;10.60;99.90;;;;;;5059376;28;20127;-86
2023/10/28 01:49:07;;;;;;;154.18;50.42;;;10.80;99.90;;;;;;5075752;28;20075;-86
2023/10/28 01:51:33;;;;;;;149.43;51.65;;;11.30;99.90;;;;;;5059496;28;20040;-86
2023/10/28 01:53:59;;;;;;;127.88;49.75;;;11.10;99.90;;;;;;5059406;28;20035;-86
2023/10/28 01:56:25;;;;;;;130.98;49.45;;;10.30;99.90;;;;;;5056096;28;20478;-86
2023/10/28 01:58:50;;;;;;;125.60;48.88;;;11.20;99.90;;;;;;5055210;28;20055;-86
2023/10/28 02:01:16;;;;;;;148.10;49.35;;;11.00;99.90;;;;;;5039125;28;20080;-86
2023/10/28 02:03:41;;;;;;;130.32;50.42;;;11.40;99.90;;;;;;5055639;28;20128;-85
2023/10/28 02:06:07;;;;;;;152.20;52.88;;;10.40;99.90;;;;;;5055687;28;20049;-86
2023/10/28 02:08:33;;;;;;;120.25;48.97;;;10.30;99.90;;;;;;5055630;28;20040;-86
2023/10/28 02:10:59;;;;;;;154.60;51.95;;;10.50;99.90;;;;;;5055810;28;20033;-86
2023/10/28 02:13:24;;;;;;;112.85;45.83;;;10.50;99.90;;;;;;5054928;28;20040;-86
2023/10/28 02:15:51;;;;;;;119.53;48.17;;;11.30;99.90;;;;;;5055943;28;20048;-86
2023/10/28 02:18:22;;;;;;;130.40;49.47;;;10.30;99.90;;;;;;5055919;28;20083;-86
2023/10/28 02:20:48;;;;;;;113.28;49.85;;;10.70;99.90;;;;;;5055278;28;20033;-86
2023/10/28 02:23:14;;;;;;;132.10;49.25;;;10.20;99.90;;;;;;5055181;28;20045;-86
2023/10/28 02:25:43;;;;;;;143.43;51.83;;;10.20;99.90;;;;;;5055138;28;20052;-86
2023/10/28 02:28:09;;;;;;;155.23;52.08;;;10.00;99.90;;;;;;5054863;28;20040;-86
2023/10/28 02:30:39;;;;;;;203.75;53.47;;;10.60;99.90;;;;;;5055131;28;20101;-86
2023/10/28 02:33:06;;;;;;;116.85;47.72;;;10.10;99.90;;;;;;5055921;28;20040;-86
2023/10/28 02:35:32;;;;;;;128.52;50.80;;;10.10;99.90;;;;;;5055415;28;20041;-86
2023/10/28 02:37:58;;;;;;;134.02;51.20;;;10.10;99.90;;;;;;5054899;28;20371;-86
2023/10/28 02:40:23;;;;;;;142.85;53.88;;;10.70;99.90;;;;;;5038401;28;20045;-86
2023/10/28 02:42:49;;;;;;;107.72;48.00;;;11.00;99.90;;;;;;5054915;28;20037;-86
2023/10/28 02:45:15;;;;;;;105.63;48.08;;;10.40;99.90;;;;;;5055288;28;20029;-86
2023/10/28 02:47:40;;;;;;;117.57;46.97;;;10.10;99.90;;;;;;5054698;28;20043;-85
2023/10/28 02:50:08;;;;;;;110.72;47.83;;;9.60;99.90;;;;;;5055118;28;20579;-86
2023/10/28 02:52:33;;;;;;;98.35;45.38;;;10.40;99.90;;;;;;5038003;28;20056;-85
2023/10/28 02:54:59;;;;;;;95.65;45.95;;;10.80;99.90;;;;;;5054813;28;20033;-85
2023/10/28 02:57:25;;;;;;;92.65;46.35;;;10.70;99.90;;;;;;5054522;28;20302;-86
2023/10/28 02:59:51;;;;;;;97.22;45.88;;;10.80;99.90;;;;;;5055252;28;20043;-86
2023/10/28 03:02:16;;;;;;;119.53;48.55;;;10.60;99.90;;;;;;5037849;28;20037;-86
2023/10/28 03:04:42;;;;;;;91.32;45.58;;;10.70;99.90;;;;;;5054176;28;20071;-86
2023/10/28 03:07:08;;;;;;;106.43;50.85;;;10.20;99.90;;;;;;5055141;28;20079;-85
2023/10/28 03:09:34;;;;;;;169.30;52.28;;;10.20;99.90;;;;;;5054046;28;20510;-86
2023/10/28 03:12:00;;;;;;;98.82;47.38;;;10.20;99.90;;;;;;5037964;28;20421;-86
2023/10/28 03:14:25;;;;;;;104.03;50.30;;;9.70;99.90;;;;;;5054460;28;20133;-86
2023/10/28 03:16:51;;;;;;;144.88;54.80;;;10.60;99.90;;;;;;5054376;28;20037;-86
2023/10/28 03:19:17;;;;;;;105.22;54.10;;;10.20;99.90;;;;;;5037959;28;20044;-86
2023/10/28 03:21:43;;;;;;;100.32;51.15;;;10.50;99.90;;;;;;5054988;28;20111;-86
2023/10/28 03:24:09;;;;;;;120.07;52.42;;;9.60;99.90;;;;;;5054237;28;20033;-86
2023/10/28 03:26:35;;;;;;;127.50;53.00;;;10.30;99.90;;;;;;5037024;28;20383;-86
2023/10/28 03:29:00;;;;;;;98.60;49.67;;;10.40;99.90;;;;;;5054025;28;20053;-85
2023/10/28 03:31:26;;;;;;;105.72;52.90;;;9.80;99.90;;;;;;5054606;28;20503;-85
2023/10/28 03:33:52;;;;;;;96.13;48.63;;;9.30;99.90;;;;;;5053588;28;20053;-85
2023/10/28 03:36:18;;;;;;;89.07;51.15;;;10.30;99.90;;;;;;5036744;28;20072;-86
2023/10/28 03:38:44;;;;;;;102.22;51.05;;;10.30;99.90;;;;;;5053933;28;20126;-85
2023/10/28 03:41:11;;;;;;;132.68;59.85;;;9.30;99.90;;;;;;5058529;28;20037;-85
2023/10/28 03:43:38;;;;;;;128.35;55.35;;;10.00;99.90;;;;;;5057920;28;20036;-86
2023/10/28 03:46:04;;;;;;;125.70;55.42;;;9.30;99.90;;;;;;5057974;28;20044;-86
2023/10/28 03:48:30;;;;;;;116.88;52.78;;;9.30;99.90;;;;;;5058154;28;20506;-86
2023/10/28 03:51:03;;;;;;;111.15;54.67;;;10.40;99.90;;;;;;5058210;28;20083;-86
2023/10/28 03:53:29;;;;;;;107.20;50.35;;;8.40;99.90;;;;;;5057893;28;20557;-86
2023/10/28 03:55:55;;;;;;;99.63;51.05;;;9.20;99.90;;;;;;5058202;28;20033;-86
2023/10/28 03:58:21;;;;;;;128.32;54.72;;;9.20;99.90;;;;;;5057726;28;20394;-85
2023/10/28 04:00:53;;;;;;;94.53;52.60;;;9.30;99.90;;;;;;5058449;28;20033;-86
2023/10/28 04:03:23;;;;;;;115.38;50.55;;;9.30;99.90;;;;;;5057024;28;20033;-86
2023/10/28 04:05:49;;;;;;;129.55;55.55;;;9.50;99.90;;;;;;5057926;28;20043;-86
2023/10/28 04:08:15;;;;;;;105.13;53.28;;;9.40;99.90;;;;;;5057491;28;20037;-86
2023/10/28 04:10:41;;;;;;;121.10;48.60;;;9.70;99.90;;;;;;5057802;28;20422;-86
2023/10/28 04:13:07;;;;;;;100.00;51.33;;;9.40;99.90;;;;;;5057325;28;20033;-86
2023/10/28 04:15:35;;;;;;;120.30;54.85;;;9.50;99.90;;;;;;5057856;28;20056;-86
2023/10/28 04:18:01;;;;;;;112.20;51.35;;;10.50;99.90;;;;;;5058117;28;20037;-86
2023/10/28 04:20:27;;;;;;;113.07;55.08;;;9.80;99.90;;;;;;5057725;28;20085;-86
2023/10/28 04:22:53;;;;;;;123.95;55.10;;;9.20;99.90;;;;;;5057221;28;20055;-86
2023/10/28 04:25:19;;;;;;;103.80;54.28;;;9.60;99.90;;;;;;5057813;28;20041;-86
2023/10/28 04:27:44;;;;;;;109.32;50.35;;;10.30;99.90;;;;;;5057388;28;20461;-86
2023/10/28 04:30:10;;;;;;;85.55;49.88;;;10.70;99.90;;;;;;5057370;28;20059;-85
2023/10/28 04:32:38;;;;;;;118.75;51.50;;;9.60;99.90;;;;;;5040289;28;20087;-86
2023/10/28 04:35:04;;;;;;;98.10;50.80;;;10.60;99.90;;;;;;5057560;28;20060;-85
2023/10/28 04:37:29;;;;;;;105.50;49.33;;;9.60;99.90;;;;;;5058429;28;20045;-86
2023/10/28 04:39:55;;;;;;;96.15;48.60;;;9.70;99.90;;;;;;5062959;28;20102;-86
2023/10/28 04:42:21;;;;;;;119.63;49.30;;;9.70;99.90;;;;;;5062610;28;20043;-86
2023/10/28 04:44:46;;;;;;;92.80;48.75;;;9.70;99.90;;;;;;5063348;28;20035;-86
2023/10/28 04:47:13;;;;;;;101.68;51.35;;;9.70;99.90;;;;;;5062844;28;20041;-86
2023/10/28 04:49:40;;;;;;;92.93;48.22;;;10.30;99.90;;;;;;5062658;28;20037;-86
2023/10/28 04:52:08;;;;;;;100.00;48.50;;;9.70;99.90;;;;;;5062444;28;20079;-86
2023/10/28 04:54:34;;;;;;;129.13;50.67;;;9.70;99.90;;;;;;5062860;28;20521;-85
2023/10/28 04:57:02;;;;;;;94.45;45.35;;;10.40;99.90;;;;;;5062156;28;20037;-85
2023/10/28 04:59:29;;;;;;;87.32;47.20;;;9.70;99.90;;;;;;5063123;28;20037;-86
2023/10/28 05:01:55;;;;;;;84.97;46.75;;;9.80;99.90;;;;;;5063288;28;20071;-86
2023/10/28 05:04:23;;;;;;;111.65;51.53;;;9.80;99.90;;;;;;5046208;28;20037;-85
2023/10/28 05:06:49;;;;;;;121.25;50.08;;;10.40;99.90;;;;;;5062567;28;20041;-86
2023/10/28 05:09:15;;;;;;;100.72;51.80;;;10.00;99.90;;;;;;5062689;28;20650;-86
2023/10/28 05:11:42;;;;;;;103.20;51.60;;;9.80;99.90;;;;;;5059496;28;20071;-86
2023/10/28 05:14:11;;;;;;;101.50;49.22;;;9.80;99.90;;;;;;5052119;28;20048;-86
2023/10/28 05:16:37;;;;;;;115.88;51.05;;;9.80;99.90;;;;;;5050585;28;20446;-86
2023/10/28 05:19:02;;;;;;;123.18;54.72;;;10.60;99.90;;;;;;5050938;28;20087;-86
2023/10/28 05:21:28;;;;;;;108.38;48.15;;;9.30;99.90;;;;;;5051816;28;20178;-86
2023/10/28 05:23:54;;;;;;;101.22;49.28;;;10.00;99.90;;;;;;5045186;28;20041;-85
2023/10/28 05:26:20;;;;;;;92.80;45.08;;;9.80;99.90;;;;;;5062046;28;20045;-87
2023/10/28 05:28:46;;;;;;;93.45;45.40;;;9.80;99.90;;;;;;5062294;28;20104;-86
2023/10/28 05:31:13;;;;;;;113.40;48.05;;;9.80;99.90;;;;;;5062519;28;20047;-86
2023/10/28 05:33:39;;;;;;;128.82;50.80;;;10.30;99.90;;;;;;5058165;28;20110;-86
2023/10/28 05:36:05;;;;;;;119.20;51.55;;;10.50;99.90;;;;;;5062385;28;20040;-85
2023/10/28 05:38:31;;;;;;;121.03;47.90;;;9.80;99.90;;;;;;5063005;28;20071;-86
2023/10/28 05:40:57;;;;;;;142.55;57.58;;;10.40;99.90;;;;;;5062769;28;20036;-86
2023/10/28 05:43:23;;;;;;;100.40;48.08;;;9.80;99.90;;;;;;5062585;28;20033;-86
2023/10/28 05:45:49;;;;;;;95.05;50.60;;;10.40;99.90;;;;;;5065241;28;20033;-86
2023/10/28 05:48:14;;;;;;;107.88;47.15;;;10.40;99.90;;;;;;5065617;28;20482;-85
2023/10/28 05:50:40;;;;;;;112.03;48.67;;;10.60;99.90;;;;;;5081877;28;20426;-85
2023/10/28 05:53:06;;;;;;;112.22;48.15;;;9.80;99.90;;;;;;5065084;28;20044;-85
2023/10/28 05:55:32;;;;;;;92.75;45.85;;;9.80;99.90;;;;;;5065500;28;20036;-86
2023/10/28 05:57:57;;;;;;;102.00;45.70;;;9.80;99.90;;;;;;5065410;28;20040;-85
2023/10/28 06:00:24;;;;;;;85.43;45.80;;;9.80;99.90;;;;;;5065658;28;20040;-86
2023/10/28 06:02:49;;;;;;;94.32;47.42;;;10.90;99.90;;;;;;5064980;28;20040;-84
2023/10/28 06:05:15;;;;;;;95.60;47.53;;;9.90;99.90;;;;;;5065363;28;20398;-85
2023/10/28 06:07:47;;;;;;;103.80;46.58;;;9.90;99.90;;;;;;5081850;28;20044;-86
2023/10/28 06:10:13;;;;;;;86.97;47.10;;;9.80;99.90;;;;;;5065404;28;20082;-85
2023/10/28 06:12:39;;;;;;;97.13;43.97;;;9.90;99.90;;;;;;5065081;28;20078;-85
2023/10/28 06:15:05;;;;;;;87.18;43.00;;;10.90;99.90;;;;;;5081775;28;20123;-85
2023/10/28 06:17:31;;;;;;;75.68;40.38;;;9.90;99.90;;;;;;5065220;28;20044;-85
2023/10/28 06:19:59;;;;;;;80.50;40.42;;;10.10;99.90;;;;;;5082064;28;20490;-86
2023/10/28 06:22:24;;;;;;;85.60;44.15;;;9.80;99.90;;;;;;5065406;28;20436;-86
2023/10/28 06:24:50;;;;;;;69.93;40.58;;;9.90;99.90;;;;;;5081539;28;20041;-85
2023/10/28 06:27:19;;;;;;;78.35;39.38;;;9.90;99.90;;;;;;5081265;28;20044;-85
2023/10/28 06:29:44;;;;;;;79.45;41.30;;;9.90;99.90;;;;;;5064609;28;20048;-85
2023/10/28 06:32:10;;;;;;;67.07;37.83;;;9.90;99.90;;;;;;5080952;28;20033;-85
2023/10/28 06:34:36;;;;;;;78.03;43.28;;;10.30;99.90;;;;;;5080874;28;20229;-85
2023/10/28 06:37:01;;;;;;;75.10;44.78;;;10.60;99.90;;;;;;5064777;28;20104;-86
2023/10/28 06:39:27;;;;;;;100.00;46.08;;;9.90;99.90;;;;;;5064434;28;20612;-85
2023/10/28 06:41:53;;;;;;;62.22;36.97;;;10.00;99.90;;;;;;5080980;28;20036;-85
2023/10/28 06:44:20;;;;;;;74.07;36.33;;;10.00;99.90;;;;;;5064371;28;20037;-84
2023/10/28 06:46:45;;;;;;;67.47;37.03;;;10.30;99.90;;;;;;5063868;28;20104;-85
2023/10/28 06:49:11;;;;;;;62.35;35.13;;;10.00;99.90;;;;;;5080859;28;20028;-85
2023/10/28 06:51:37;;;;;;;79.75;41.35;;;10.50;99.90;;;;;;5063831;28;20041;-86
2023/10/28 06:54:04;;;;;;;55.78;33.97;;;10.00;99.90;;;;;;5064154;28;20044;-85
2023/10/28 06:56:30;;;;;;;68.40;35.80;;;10.00;99.90;;;;;;5064225;28;20040;-85
2023/10/28 06:58:56;;;;;;;51.70;32.05;;;11.20;99.90;;;;;;5064579;28;20044;-86
2023/10/28 07:01:22;;;;;;;55.55;33.25;;;10.20;99.90;;;;;;5064433;28;20509;-84
2023/10/28 07:03:49;;;;;;;50.05;32.00;;;10.40;99.90;;;;;;5063980;28;20044;-85
2023/10/28 07:06:15;;;;;;;47.95;29.20;;;10.70;99.90;;;;;;5063866;28;20232;-86
2023/10/28 07:08:42;;;;;;;39.28;27.88;;;10.50;99.90;;;;;;5064090;28;20048;-84
2023/10/28 07:11:07;;;;;;;43.10;29.08;;;10.10;99.90;;;;;;5081118;28;20048;-85
2023/10/28 07:13:33;;;;;;;53.95;33.10;;;10.60;99.90;;;;;;5064505;28;20044;-85
2023/10/28 07:16:03;;;;;;;42.88;27.30;;;10.60;99.90;;;;;;5067964;28;20055;-86
2023/10/28 07:18:32;;;;;;;34.10;27.08;;;10.20;99.90;;;;;;5068526;28;20062;-85
2023/10/28 07:20:58;;;;;;;38.63;26.77;;;10.80;99.90;;;;;;5085242;28;20052;-85
2023/10/28 07:23:26;;;;;;;33.08;26.70;;;10.20;99.90;;;;;;5084877;28;20171;-86
2023/10/28 07:25:58;;;;;;;36.50;26.70;;;10.20;99.90;;;;;;5068781;28;20037;-85
2023/10/28 07:28:24;;;;;;;35.50;27.20;;;10.60;99.90;;;;;;5068226;28;20033;-85
2023/10/28 07:30:51;;;;;;;41.15;25.50;;;10.20;99.90;;;;;;5084816;28;20032;-84
2023/10/28 07:33:21;;;;;;;37.17;26.20;;;10.20;99.90;;;;;;5068105;28;20045;-86
2023/10/28 07:35:48;;;;;;;41.90;26.25;;;10.40;99.90;;;;;;5067789;28;20045;-86
2023/10/28 07:38:15;;;;;;;40.15;27.52;;;10.20;99.90;;;;;;5068220;28;20283;-86
2023/10/28 07:40:41;;;;;;;40.45;27.15;;;10.60;99.90;;;;;;5083963;28;20207;-85
2023/10/28 07:43:09;;;;;;;43.97;29.42;;;11.30;99.90;;;;;;5068283;28;20048;-85
2023/10/28 07:45:34;;;;;;;29.20;23.58;;;10.40;99.90;;;;;;5067586;28;20045;-84
2023/10/28 07:48:00;;;;;;;38.08;24.10;;;11.00;99.90;;;;;;5068057;28;20047;-85
2023/10/28 07:50:26;;;;;;;30.83;23.40;;;10.40;99.90;;;;;;5068120;28;20052;-85
2023/10/28 07:52:51;;;;;;;28.92;24.23;;;11.20;99.90;;;;;;5084721;28;20037;-86
2023/10/28 07:55:17;;;;;;;29.52;23.00;;;11.30;99.90;;;;;;5067933;28;20565;-85
2023/10/28 07:57:46;;;;;;;26.20;23.25;;;11.10;99.90;;;;;;5068153;28;20048;-86
2023/10/28 08:00:13;;;;;;;29.67;20.90;;;11.50;99.90;;;;;;5067896;28;20044;-86
2023/10/28 08:02:44;;;;;;;23.10;19.73;;;10.50;99.90;;;;;;5068422;28;20068;-85
2023/10/28 08:05:10;;;;;;;29.25;21.55;;;11.50;99.90;;;;;;5068171;28;20043;-85
2023/10/28 08:07:36;;;;;;;27.92;20.73;;;10.60;99.90;;;;;;5067739;28;20147;-86
2023/10/28 08:10:02;;;;;;;24.95;19.90;;;10.70;99.90;;;;;;5084579;28;20060;-85
2023/10/28 08:12:28;;;;;;;32.40;21.45;;;10.70;99.90;;;;;;5084367;28;20352;-85
2023/10/28 08:14:54;;;;;;;23.92;20.05;;;11.40;99.90;;;;;;5084696;28;20119;-86
2023/10/28 08:17:21;;;;;;;28.63;19.95;;;10.90;99.90;;;;;;5068305;28;20111;-86
2023/10/28 08:19:47;;;;;;;26.17;20.73;;;11.00;99.90;;;;;;5068002;28;20041;-84
2023/10/28 08:22:14;;;;;;;20.80;18.45;;;11.50;99.90;;;;;;5067593;28;20074;-85
2023/10/28 08:24:41;;;;;;;18.92;16.98;;;11.00;99.90;;;;;;5083869;28;20044;-86
2023/10/28 08:27:08;;;;;;;22.63;13.90;;;11.00;99.90;;;;;;5067536;28;20154;-85
2023/10/28 08:29:34;;;;;;;22.38;15.52;;;11.10;99.90;;;;;;5084352;28;20199;-85
2023/10/28 08:32:00;;;;;;;23.88;17.27;;;11.90;99.90;;;;;;5067530;28;20044;-85
2023/10/28 08:34:26;;;;;;;18.33;15.40;;;11.80;99.90;;;;;;5067655;28;20069;-84
2023/10/28 08:36:55;;;;;;;19.50;16.80;;;11.30;99.90;;;;;;5067580;28;20100;-85
2023/10/28 08:39:20;;;;;;;19.58;17.65;;;11.00;99.90;;;;;;5066947;28;20140;-85
2023/10/28 08:41:47;;;;;;;18.48;15.23;;;11.70;99.90;;;;;;5084090;28;20402;-85
2023/10/28 08:44:14;;;;;;;22.73;14.73;;;11.50;99.90;;;;;;5067596;28;20061;-85
2023/10/28 08:46:41;;;;;;;18.52;14.63;;;11.00;99.90;;;;;;5083793;28;20095;-85
2023/10/28 08:49:10;;;;;;;19.15;16.27;;;11.70;99.90;;;;;;5066706;28;20313;-85
2023/10/28 08:51:42;;;;;;;19.00;15.65;;;11.40;99.90;;;;;;5066413;28;20037;-85
2023/10/28 08:54:10;;;;;;;18.42;13.68;;;11.10;99.90;;;;;;5067296;28;20037;-85
2023/10/28 08:56:40;;;;;;;18.10;14.23;;;11.30;99.90;;;;;;5067543;28;20060;-84
2023/10/28 08:59:07;;;;;;;21.52;14.02;;;11.20;99.90;;;;;;5067056;28;20129;-86
2023/10/28 09:01:34;;;;;;;21.52;13.60;;;12.20;99.90;;;;;;5067357;28;20036;-86
2023/10/28 09:04:06;;;;;;;18.92;12.13;;;11.20;99.90;;;;;;5083580;28;20124;-85
2023/10/28 09:06:32;;;;;;;14.18;11.20;;;11.60;99.90;;;;;;5083010;28;20067;-85
2023/10/28 09:08:59;;;;;;;14.52;12.57;;;11.30;99.90;;;;;;5066663;28;20072;-85
2023/10/28 09:11:25;;;;;;;18.55;12.02;;;11.30;99.90;;;;;;5083277;28;20033;-85
2023/10/28 09:13:51;;;;;;;16.50;14.48;;;11.40;99.90;;;;;;5066646;28;20367;-85
2023/10/28 09:16:17;;;;;;;19.15;11.52;;;12.00;99.90;;;;;;5066731;28;20074;-84
2023/10/28 09:18:44;;;;;;;16.30;12.00;;;11.60;99.90;;;;;;5083446;28;20418;-85
2023/10/28 09:21:11;;;;;;;15.93;10.90;;;11.50;99.90;;;;;;5083627;28;20067;-85
2023/10/28 09:23:38;;;;;;;20.13;13.00;;;11.90;99.90;;;;;;5083088;28;20079;-86
2023/10/28 09:26:08;;;;;;;14.90;12.38;;;11.50;99.90;;;;;;5066285;28;20067;-86
2023/10/28 09:28:34;;;;;;;16.45;10.45;;;11.50;99.90;;;;;;5066964;28;20040;-85
2023/10/28 09:31:00;;;;;;;17.58;10.88;;;11.50;99.90;;;;;;5065657;28;20041;-85
2023/10/28 09:33:27;;;;;;;16.40;11.50;;;11.70;99.90;;;;;;5082685;28;20105;-86
2023/10/28 09:35:56;;;;;;;14.85;11.85;;;11.60;99.90;;;;;;5065644;28;20051;-85
2023/10/28 09:38:25;;;;;;;16.48;11.38;;;11.70;99.90;;;;;;5064721;28;20047;-85
2023/10/28 09:40:53;;;;;;;17.65;11.13;;;12.60;99.90;;;;;;5066138;28;20052;-86
2023/10/28 09:43:20;;;;;;;16.17;11.18;;;12.20;99.90;;;;;;5066439;28;20033;-85
2023/10/28 09:45:53;;;;;;;15.52;11.38;;;11.70;99.90;;;;;;5065926;28;20056;-85
2023/10/28 09:48:19;;;;;;;18.08;13.48;;;11.70;99.90;;;;;;5065817;28;20036;-86
2023/10/28 09:50:52;;;;;;;14.18;12.65;;;12.40;99.90;;;;;;5066034;28;20106;-85
2023/10/28 09:53:28;;;;;;;20.10;12.47;;;11.70;99.90;;;;;;5065661;28;20060;-85
2023/10/28 09:55:56;;;;;;;17.35;10.77;;;11.80;99.90;;;;;;5082542;28;20170;-85
2023/10/28 09:58:46;;;;;;;16.48;11.73;;;11.90;99.90;;;;;;5065651;28;20041;-85
2023/10/28 10:01:23;;;;;;;16.38;13.30;;;12.40;99.90;;;;;;5065648;28;20048;-85
2023/10/28 10:03:59;;;;;;;14.77;11.85;;;13.00;99.90;;;;;;5065231;28;20131;-85
2023/10/28 10:06:26;;;;;;;13.25;10.63;;;12.10;99.90;;;;;;5065612;28;20054;-85
2023/10/28 10:08:55;;;;;;;13.82;11.10;;;12.10;99.90;;;;;;5065775;28;20098;-84
2023/10/28 10:11:22;;;;;;;19.25;13.25;;;12.60;99.90;;;;;;5065070;28;20104;-85
2023/10/28 10:13:48;;;;;;;13.38;10.98;;;12.20;99.90;;;;;;5065481;28;20039;-86
2023/10/28 10:16:48;;;;;;;14.35;12.85;;;12.90;99.90;;;;;;5082078;28;20060;-86
2023/10/28 10:19:22;;;;;;;19.70;12.93;;;12.20;99.90;;;;;;5065039;28;20041;-85
2023/10/28 10:21:52;;;;;;;17.92;13.20;;;12.30;99.90;;;;;;5065389;28;20041;-85
2023/10/28 10:24:22;;;;;;;13.00;11.52;;;12.70;99.90;;;;;;5082317;28;20025;-85
2023/10/28 10:26:56;;;;;;;15.02;13.30;;;12.20;99.90;;;;;;5065207;28;20039;-85
2023/10/28 10:29:22;;;;;;;17.70;13.13;;;12.20;99.90;;;;;;5065792;28;20040;-84
2023/10/28 10:31:51;;;;;;;15.45;12.88;;;12.20;99.90;;;;;;5065683;28;20112;-84
2023/10/28 10:34:32;;;;;;;15.95;14.00;;;12.20;99.90;;;;;;5064649;28;20048;-86
2023/10/28 10:36:57;;;;;;;22.13;10.90;;;12.30;99.90;;;;;;5065572;28;20070;-86
2023/10/28 10:39:23;;;;;;;15.10;13.20;;;12.70;99.90;;;;;;5065097;28;20337;-86
2023/10/28 10:41:53;;;;;;;12.25;10.88;;;12.10;99.90;;;;;;5065374;28;20072;-86
2023/10/28 10:44:39;;;;;;;12.77;11.52;;;12.20;99.90;;;;;;5081743;28;20040;-85
2023/10/28 10:47:08;;;;;;;17.27;10.18;;;12.20;99.90;;;;;;5082208;28;20123;-85
2023/10/28 10:49:36;;;;;;;15.32;12.70;;;12.50;99.90;;;;;;5081596;28;20051;-86
2023/10/28 10:52:03;;;;;;;17.42;15.63;;;12.30;99.90;;;;;;5081816;28;20055;-85
2023/10/28 10:54:34;;;;;;;15.70;9.95;;;12.20;99.90;;;;;;5065230;28;20107;-85
2023/10/28 10:57:00;;;;;;;16.40;11.02;;;12.70;99.90;;;;;;5064722;28;20104;-85
2023/10/28 10:59:29;;;;;;;14.40;12.98;;;12.20;99.90;;;;;;5081546;28;20047;-85
2023/10/28 11:01:56;;;;;;;16.58;14.85;;;12.20;99.90;;;;;;5065380;28;20041;-84
2023/10/28 11:04:23;;;;;;;11.13;8.45;;;12.40;99.90;;;;;;5064937;28;20170;-85
2023/10/28 11:06:51;;;;;;;16.33;12.20;;;12.30;99.90;;;;;;5081839;28;20039;-86
2023/10/28 11:09:18;;;;;;;14.55;11.95;;;12.30;99.90;;;;;;5065309;28;20122;-85
2023/10/28 11:11:43;;;;;;;14.23;9.63;;;12.30;99.90;;;;;;5082193;28;20383;-84
2023/10/28 11:14:14;;;;;;;17.75;12.00;;;12.40;99.90;;;;;;5066098;28;20043;-87
2023/10/28 11:16:41;;;;;;;13.55;11.48;;;12.50;99.90;;;;;;5081353;28;20047;-86
2023/10/28 11:19:09;;;;;;;15.63;10.02;;;12.60;99.90;;;;;;5065365;28;20302;-85
2023/10/28 11:21:41;;;;;;;11.63;10.10;;;12.60;99.90;;;;;;5066773;28;20045;-85
2023/10/28 11:24:09;;;;;;;12.70;11.15;;;12.70;99.90;;;;;;5080436;28;20074;-85
2023/10/28 11:26:36;;;;;;;15.05;12.23;;;12.70;99.90;;;;;;5083208;28;20045;-87
2023/10/28 11:29:03;;;;;;;15.98;13.20;;;12.70;99.90;;;;;;5060653;28;20037;-85
2023/10/28 11:31:31;;;;;;;13.98;12.23;;;12.80;99.90;;;;;;5066244;28;20124;-85
2023/10/28 11:34:04;;;;;;;15.20;10.82;;;12.80;99.90;;;;;;5062394;28;20099;-88
2023/10/28 11:36:33;;;;;;;11.75;10.52;;;13.10;99.90;;;;;;5067817;28;20037;-87
2023/10/28 11:39:10;;;;;;;11.93;9.38;;;12.90;99.90;;;;;;5050422;28;20041;-87
2023/10/28 11:41:37;;;;;;;9.23;7.93;;;13.30;99.90;;;;;;5052988;28;20041;-86
2023/10/28 11:44:03;;;;;;;12.07;8.23;;;13.70;99.90;;;;;;5062539;28;20129;-87
2023/10/28 11:46:29;;;;;;;16.42;14.13;;;12.60;99.90;;;;;;5062472;28;20040;-86
2023/10/28 11:48:55;;;;;;;14.52;11.43;;;13.00;99.90;;;;;;5051563;28;20033;-85
2023/10/28 11:51:23;;;;;;;13.80;9.80;;;13.00;99.90;;;;;;5060706;28;20219;-85
2023/10/28 11:53:48;;;;;;;11.43;9.48;;;13.00;99.90;;;;;;5059588;28;20083;-85
2023/10/28 11:56:16;;;;;;;17.30;11.15;;;13.60;99.90;;;;;;5046078;28;20036;-86
2023/10/28 11:58:43;;;;;;;18.70;12.13;;;13.90;99.90;;;;;;5081818;28;20120;-85
2023/10/28 12:01:09;;;;;;;15.40;11.00;;;13.90;99.90;;;;;;5066256;28;20041;-87
2023/10/28 12:03:35;;;;;;;13.85;8.27;;;13.20;99.90;;;;;;5082239;28;20051;-84
2023/10/28 12:06:01;;;;;;;15.68;10.38;;;13.00;99.90;;;;;;5064641;28;20033;-87
2023/10/28 12:08:26;;;;;;;10.00;7.95;;;13.40;99.90;;;;;;5052224;28;20105;-86
2023/10/28 12:10:53;;;;;;;14.35;9.02;;;13.30;99.90;;;;;;5066263;28;20047;-85
2023/10/28 12:13:19;;;;;;;9.38;8.45;;;13.70;99.90;;;;;;5069051;28;20040;-85
2023/10/28 12:15:45;;;;;;;9.68;8.65;;;13.90;99.90;;;;;;5058150;28;20452;-86
2023/10/28 12:18:11;;;;;;;14.40;12.95;;;13.20;99.90;;;;;;5058639;28;20048;-85
2023/10/28 12:20:37;;;;;;;15.85;11.23;;;13.20;99.90;;;;;;5061384;28;20037;-84
2023/10/28 12:23:04;;;;;;;14.10;10.23;;;13.50;99.90;;;;;;5075020;28;20040;-86
2023/10/28 12:25:31;;;;;;;15.15;8.48;;;13.80;99.90;;;;;;5069840;28;20063;-86